sensor_id;sensor_type;location;lat;lon;timestamp;P1;durP1;ratioP1;P2;durP2;ratioP2
76848;SDS011;65814;51.134;16.980;2023-03-14T00:01:08;8.10;;;4.10;;
76848;SDS011;65814;51.134;16.980;2023-03-14T00:03:37;9.00;;;4.60;;
76848;SDS011;65814;51.134;16.980;2023-03-14T00:06:05;8.10;;;4.80;;
76848;SDS011;65814;51.134;16.980;2023-03-14T00:08:34;8.10;;;5.30;;
76848;SDS011;65814;51.134;16.980;2023-03-14T00:11:09;9.00;;;4.50;;
76848;SDS011;65814;51.134;16.980;2023-03-14T00:13:39;7.50;;;4.40;;
76848;SDS011;65814;51.134;16.980;2023-03-14T00:16:08;7.10;;;4.00;;
76848;SDS011;65814;51.134;16.980;2023-03-14T00:18:38;8.50;;;4.70;;
76848;SDS011;65814;51.134;16.980;2023-03-14T00:21:07;6.90;;;4.00;;
76848;SDS011;65814;51.134;16.980;2023-03-14T00:23:36;5.90;;;4.50;;
76848;SDS011;65814;51.134;16.980;2023-03-14T00:26:06;6.90;;;5.00;;
76848;SDS011;65814;51.134;16.980;2023-03-14T00:28:42;11.00;;;4.70;;
76848;SDS011;65814;51.134;16.980;2023-03-14T00:31:11;9.00;;;4.60;;
76848;SDS011;65814;51.134;16.980;2023-03-14T00:33:41;10.50;;;5.50;;
76848;SDS011;65814;51.134;16.980;2023-03-14T00:36:11;7.40;;;4.70;;
76848;SDS011;65814;51.134;16.980;2023-03-14T00:38:40;8.80;;;4.40;;
76848;SDS011;65814;51.134;16.980;2023-03-14T00:41:10;9.50;;;4.70;;
76848;SDS011;65814;51.134;16.980;2023-03-14T00:43:40;8.10;;;4.60;;
76848;SDS011;65814;51.134;16.980;2023-03-14T00:46:08;8.00;;;4.40;;
76848;SDS011;65814;51.134;16.980;2023-03-14T00:48:36;7.10;;;4.20;;
76848;SDS011;65814;51.134;16.980;2023-03-14T00:51:05;7.00;;;4.60;;
76848;SDS011;65814;51.134;16.980;2023-03-14T00:53:38;8.20;;;4.20;;
76848;SDS011;65814;51.134;16.980;2023-03-14T00:56:08;8.60;;;4.60;;
76848;SDS011;65814;51.134;16.980;2023-03-14T00:58:38;10.20;;;4.10;;
76848;SDS011;65814;51.134;16.980;2023-03-14T01:01:10;10.10;;;4.50;;
76848;SDS011;65814;51.134;16.980;2023-03-14T01:03:41;7.40;;;4.40;;
76848;SDS011;65814;51.134;16.980;2023-03-14T01:06:10;8.80;;;4.60;;
76848;SDS011;65814;51.134;16.980;2023-03-14T01:08:41;7.10;;;4.40;;
76848;SDS011;65814;51.134;16.980;2023-03-14T01:11:12;6.40;;;4.40;;
76848;SDS011;65814;51.134;16.980;2023-03-14T01:13:41;11.10;;;4.40;;
76848;SDS011;65814;51.134;16.980;2023-03-14T01:16:10;8.00;;;4.40;;
76848;SDS011;65814;51.134;16.980;2023-03-14T01:18:39;7.40;;;5.30;;
76848;SDS011;65814;51.134;16.980;2023-03-14T01:21:10;6.60;;;5.20;;
76848;SDS011;65814;51.134;16.980;2023-03-14T01:23:49;9.00;;;5.40;;
76848;SDS011;65814;51.134;16.980;2023-03-14T01:26:21;6.40;;;4.20;;
76848;SDS011;65814;51.134;16.980;2023-03-14T01:28:51;5.90;;;4.50;;
76848;SDS011;65814;51.134;16.980;2023-03-14T01:31:20;10.00;;;4.80;;
76848;SDS011;65814;51.134;16.980;2023-03-14T01:33:48;8.90;;;5.40;;
76848;SDS011;65814;51.134;16.980;2023-03-14T01:36:17;7.50;;;4.70;;
76848;SDS011;65814;51.134;16.980;2023-03-14T01:38:45;6.70;;;4.50;;
76848;SDS011;65814;51.134;16.980;2023-03-14T01:41:20;6.70;;;4.60;;
76848;SDS011;65814;51.134;16.980;2023-03-14T01:43:52;10.50;;;5.50;;
76848;SDS011;65814;51.134;16.980;2023-03-14T01:46:23;11.20;;;5.40;;
76848;SDS011;65814;51.134;16.980;2023-03-14T01:56:54;8.10;;;5.00;;
76848;SDS011;65814;51.134;16.980;2023-03-14T01:59:25;8.30;;;4.60;;
76848;SDS011;65814;51.134;16.980;2023-03-14T02:01:53;9.00;;;5.10;;
76848;SDS011;65814;51.134;16.980;2023-03-14T02:04:22;10.10;;;5.80;;
76848;SDS011;65814;51.134;16.980;2023-03-14T02:09:57;9.50;;;5.50;;
76848;SDS011;65814;51.134;16.980;2023-03-14T02:12:26;8.70;;;5.20;;
76848;SDS011;65814;51.134;16.980;2023-03-14T02:14:54;8.10;;;5.40;;
76848;SDS011;65814;51.134;16.980;2023-03-14T02:17:23;9.20;;;5.00;;
76848;SDS011;65814;51.134;16.980;2023-03-14T02:20:04;7.70;;;4.90;;
76848;SDS011;65814;51.134;16.980;2023-03-14T02:22:37;8.90;;;5.60;;
76848;SDS011;65814;51.134;16.980;2023-03-14T02:25:27;7.10;;;4.70;;
76848;SDS011;65814;51.134;16.980;2023-03-14T02:28:16;8.50;;;5.70;;
76848;SDS011;65814;51.134;16.980;2023-03-14T02:30:44;10.00;;;5.60;;
76848;SDS011;65814;51.134;16.980;2023-03-14T02:33:13;8.30;;;5.80;;
76848;SDS011;65814;51.134;16.980;2023-03-14T02:35:56;9.00;;;4.80;;
76848;SDS011;65814;51.134;16.980;2023-03-14T02:40:59;10.20;;;5.60;;
76848;SDS011;65814;51.134;16.980;2023-03-14T02:43:27;6.40;;;4.60;;
76848;SDS011;65814;51.134;16.980;2023-03-14T02:45:54;7.20;;;4.90;;
76848;SDS011;65814;51.134;16.980;2023-03-14T02:48:26;7.90;;;4.50;;
76848;SDS011;65814;51.134;16.980;2023-03-14T02:50:57;7.80;;;5.10;;
76848;SDS011;65814;51.134;16.980;2023-03-14T02:53:27;9.70;;;4.60;;
76848;SDS011;65814;51.134;16.980;2023-03-14T02:56:00;7.10;;;4.40;;
76848;SDS011;65814;51.134;16.980;2023-03-14T02:58:29;8.90;;;4.30;;
76848;SDS011;65814;51.134;16.980;2023-03-14T03:00:57;8.80;;;4.80;;
76848;SDS011;65814;51.134;16.980;2023-03-14T03:03:25;8.40;;;5.20;;
76848;SDS011;65814;51.134;16.980;2023-03-14T03:05:54;7.50;;;4.60;;
76848;SDS011;65814;51.134;16.980;2023-03-14T03:08:24;7.50;;;4.50;;
76848;SDS011;65814;51.134;16.980;2023-03-14T03:10:54;7.00;;;4.30;;
76848;SDS011;65814;51.134;16.980;2023-03-14T03:13:23;8.40;;;4.50;;
76848;SDS011;65814;51.134;16.980;2023-03-14T03:15:51;10.30;;;4.80;;
76848;SDS011;65814;51.134;16.980;2023-03-14T03:18:19;7.60;;;4.50;;
76848;SDS011;65814;51.134;16.980;2023-03-14T03:20:47;7.00;;;4.30;;
76848;SDS011;65814;51.134;16.980;2023-03-14T03:23:16;6.50;;;4.40;;
76848;SDS011;65814;51.134;16.980;2023-03-14T03:25:50;5.70;;;4.20;;
76848;SDS011;65814;51.134;16.980;2023-03-14T03:28:19;7.80;;;4.30;;
76848;SDS011;65814;51.134;16.980;2023-03-14T03:30:47;8.60;;;4.50;;
76848;SDS011;65814;51.134;16.980;2023-03-14T03:33:15;7.30;;;4.00;;
76848;SDS011;65814;51.134;16.980;2023-03-14T03:35:47;6.40;;;4.10;;
76848;SDS011;65814;51.134;16.980;2023-03-14T03:38:16;6.90;;;4.30;;
76848;SDS011;65814;51.134;16.980;2023-03-14T03:40:44;5.50;;;4.20;;
76848;SDS011;65814;51.134;16.980;2023-03-14T03:43:12;6.10;;;3.90;;
76848;SDS011;65814;51.134;16.980;2023-03-14T03:45:40;7.50;;;4.20;;
76848;SDS011;65814;51.134;16.980;2023-03-14T03:48:11;5.30;;;3.40;;
76848;SDS011;65814;51.134;16.980;2023-03-14T03:50:45;7.10;;;4.60;;
76848;SDS011;65814;51.134;16.980;2023-03-14T03:53:14;9.70;;;4.80;;
76848;SDS011;65814;51.134;16.980;2023-03-14T03:55:49;6.60;;;3.60;;
76848;SDS011;65814;51.134;16.980;2023-03-14T03:58:17;6.20;;;3.60;;
76848;SDS011;65814;51.134;16.980;2023-03-14T04:00:45;6.60;;;3.70;;
76848;SDS011;65814;51.134;16.980;2023-03-14T04:03:13;5.70;;;3.30;;
76848;SDS011;65814;51.134;16.980;2023-03-14T04:05:41;6.70;;;3.90;;
76848;SDS011;65814;51.134;16.980;2023-03-14T04:08:09;7.50;;;4.10;;
76848;SDS011;65814;51.134;16.980;2023-03-14T04:10:37;7.60;;;3.90;;
76848;SDS011;65814;51.134;16.980;2023-03-14T04:13:05;6.80;;;4.50;;
76848;SDS011;65814;51.134;16.980;2023-03-14T04:15:32;8.30;;;4.20;;
76848;SDS011;65814;51.134;16.980;2023-03-14T04:18:00;4.90;;;3.60;;
76848;SDS011;65814;51.134;16.980;2023-03-14T04:20:28;6.60;;;3.80;;
76848;SDS011;65814;51.134;16.980;2023-03-14T04:22:56;6.70;;;3.80;;
76848;SDS011;65814;51.134;16.980;2023-03-14T04:25:24;4.80;;;3.90;;
76848;SDS011;65814;51.134;16.980;2023-03-14T04:27:52;4.90;;;3.50;;
76848;SDS011;65814;51.134;16.980;2023-03-14T04:30:20;8.50;;;4.90;;
76848;SDS011;65814;51.134;16.980;2023-03-14T04:32:48;8.20;;;4.20;;
76848;SDS011;65814;51.134;16.980;2023-03-14T04:35:16;5.40;;;3.30;;
76848;SDS011;65814;51.134;16.980;2023-03-14T04:37:43;5.50;;;3.30;;
76848;SDS011;65814;51.134;16.980;2023-03-14T04:40:12;6.90;;;3.70;;
76848;SDS011;65814;51.134;16.980;2023-03-14T04:42:40;8.30;;;3.80;;
76848;SDS011;65814;51.134;16.980;2023-03-14T04:45:08;7.00;;;4.40;;
76848;SDS011;65814;51.134;16.980;2023-03-14T04:47:37;7.40;;;5.00;;
76848;SDS011;65814;51.134;16.980;2023-03-14T04:50:05;6.20;;;4.50;;
76848;SDS011;65814;51.134;16.980;2023-03-14T04:52:33;7.80;;;3.40;;
76848;SDS011;65814;51.134;16.980;2023-03-14T04:55:01;5.60;;;3.70;;
76848;SDS011;65814;51.134;16.980;2023-03-14T04:57:29;5.80;;;3.60;;
76848;SDS011;65814;51.134;16.980;2023-03-14T04:59:56;6.80;;;3.80;;
76848;SDS011;65814;51.134;16.980;2023-03-14T05:02:25;6.60;;;3.90;;
76848;SDS011;65814;51.134;16.980;2023-03-14T05:04:52;5.90;;;3.40;;
76848;SDS011;65814;51.134;16.980;2023-03-14T05:07:20;4.90;;;4.00;;
76848;SDS011;65814;51.134;16.980;2023-03-14T05:09:48;6.40;;;3.70;;
76848;SDS011;65814;51.134;16.980;2023-03-14T05:12:16;8.70;;;4.50;;
76848;SDS011;65814;51.134;16.980;2023-03-14T05:14:44;6.40;;;4.50;;
76848;SDS011;65814;51.134;16.980;2023-03-14T05:17:12;6.60;;;4.20;;
76848;SDS011;65814;51.134;16.980;2023-03-14T05:19:42;6.20;;;3.70;;
76848;SDS011;65814;51.134;16.980;2023-03-14T05:22:10;5.40;;;3.60;;
76848;SDS011;65814;51.134;16.980;2023-03-14T05:24:38;7.40;;;3.80;;
76848;SDS011;65814;51.134;16.980;2023-03-14T05:27:06;7.40;;;4.20;;
76848;SDS011;65814;51.134;16.980;2023-03-14T05:29:34;5.30;;;3.70;;
76848;SDS011;65814;51.134;16.980;2023-03-14T05:32:02;6.70;;;4.60;;
76848;SDS011;65814;51.134;16.980;2023-03-14T05:34:30;7.40;;;4.10;;
76848;SDS011;65814;51.134;16.980;2023-03-14T05:36:58;7.50;;;4.20;;
76848;SDS011;65814;51.134;16.980;2023-03-14T05:39:26;6.80;;;4.60;;
76848;SDS011;65814;51.134;16.980;2023-03-14T05:41:54;9.10;;;4.50;;
76848;SDS011;65814;51.134;16.980;2023-03-14T05:44:23;6.60;;;4.50;;
76848;SDS011;65814;51.134;16.980;2023-03-14T05:46:53;7.70;;;4.90;;
76848;SDS011;65814;51.134;16.980;2023-03-14T05:49:21;7.20;;;3.70;;
76848;SDS011;65814;51.134;16.980;2023-03-14T05:51:49;7.50;;;4.70;;
76848;SDS011;65814;51.134;16.980;2023-03-14T05:54:17;7.90;;;4.30;;
76848;SDS011;65814;51.134;16.980;2023-03-14T05:56:45;7.80;;;4.00;;
76848;SDS011;65814;51.134;16.980;2023-03-14T05:59:12;7.10;;;4.00;;
76848;SDS011;65814;51.134;16.980;2023-03-14T06:01:42;9.80;;;4.50;;
76848;SDS011;65814;51.134;16.980;2023-03-14T06:04:10;8.40;;;4.80;;
76848;SDS011;65814;51.134;16.980;2023-03-14T06:06:38;8.90;;;5.20;;
76848;SDS011;65814;51.134;16.980;2023-03-14T06:09:06;11.00;;;5.50;;
76848;SDS011;65814;51.134;16.980;2023-03-14T06:11:34;7.80;;;4.40;;
76848;SDS011;65814;51.134;16.980;2023-03-14T06:14:01;9.20;;;4.90;;
76848;SDS011;65814;51.134;16.980;2023-03-14T06:16:29;8.60;;;5.60;;
76848;SDS011;65814;51.134;16.980;2023-03-14T06:18:57;7.60;;;4.50;;
76848;SDS011;65814;51.134;16.980;2023-03-14T06:21:25;8.00;;;4.40;;
76848;SDS011;65814;51.134;16.980;2023-03-14T06:23:53;7.20;;;4.20;;
76848;SDS011;65814;51.134;16.980;2023-03-14T06:26:21;6.10;;;4.50;;
76848;SDS011;65814;51.134;16.980;2023-03-14T06:28:50;10.40;;;5.00;;
76848;SDS011;65814;51.134;16.980;2023-03-14T06:31:18;9.20;;;4.90;;
76848;SDS011;65814;51.134;16.980;2023-03-14T06:33:46;11.10;;;5.50;;
76848;SDS011;65814;51.134;16.980;2023-03-14T06:36:14;8.80;;;4.50;;
76848;SDS011;65814;51.134;16.980;2023-03-14T06:38:42;10.70;;;4.80;;
76848;SDS011;65814;51.134;16.980;2023-03-14T06:41:10;10.50;;;5.10;;
76848;SDS011;65814;51.134;16.980;2023-03-14T06:43:38;10.20;;;5.20;;
76848;SDS011;65814;51.134;16.980;2023-03-14T06:46:06;8.30;;;4.90;;
76848;SDS011;65814;51.134;16.980;2023-03-14T06:48:34;16.70;;;6.70;;
76848;SDS011;65814;51.134;16.980;2023-03-14T06:51:02;12.00;;;5.10;;
76848;SDS011;65814;51.134;16.980;2023-03-14T06:53:30;9.20;;;4.60;;
76848;SDS011;65814;51.134;16.980;2023-03-14T06:55:58;7.30;;;4.70;;
76848;SDS011;65814;51.134;16.980;2023-03-14T06:58:26;8.70;;;5.20;;
76848;SDS011;65814;51.134;16.980;2023-03-14T07:00:54;9.10;;;5.10;;
76848;SDS011;65814;51.134;16.980;2023-03-14T07:03:22;12.40;;;5.40;;
76848;SDS011;65814;51.134;16.980;2023-03-14T07:05:50;6.80;;;4.20;;
76848;SDS011;65814;51.134;16.980;2023-03-14T07:08:18;14.20;;;5.00;;
76848;SDS011;65814;51.134;16.980;2023-03-14T07:10:46;8.70;;;4.50;;
76848;SDS011;65814;51.134;16.980;2023-03-14T07:13:14;8.90;;;4.50;;
76848;SDS011;65814;51.134;16.980;2023-03-14T07:15:42;8.60;;;4.60;;
76848;SDS011;65814;51.134;16.980;2023-03-14T07:18:09;10.10;;;4.70;;
76848;SDS011;65814;51.134;16.980;2023-03-14T07:20:37;11.50;;;5.40;;
76848;SDS011;65814;51.134;16.980;2023-03-14T07:23:05;8.80;;;4.60;;
76848;SDS011;65814;51.134;16.980;2023-03-14T07:25:34;7.70;;;4.90;;
76848;SDS011;65814;51.134;16.980;2023-03-14T07:28:01;8.70;;;4.60;;
76848;SDS011;65814;51.134;16.980;2023-03-14T07:30:29;11.10;;;5.50;;
76848;SDS011;65814;51.134;16.980;2023-03-14T07:32:57;9.50;;;5.20;;
76848;SDS011;65814;51.134;16.980;2023-03-14T07:35:25;7.90;;;5.10;;
76848;SDS011;65814;51.134;16.980;2023-03-14T07:37:53;10.40;;;5.90;;
76848;SDS011;65814;51.134;16.980;2023-03-14T07:40:21;10.60;;;6.00;;
76848;SDS011;65814;51.134;16.980;2023-03-14T07:42:49;11.50;;;5.40;;
76848;SDS011;65814;51.134;16.980;2023-03-14T07:45:17;10.90;;;4.90;;
76848;SDS011;65814;51.134;16.980;2023-03-14T07:47:45;8.10;;;5.50;;
76848;SDS011;65814;51.134;16.980;2023-03-14T07:50:13;9.80;;;5.40;;
76848;SDS011;65814;51.134;16.980;2023-03-14T07:52:41;11.50;;;4.90;;
76848;SDS011;65814;51.134;16.980;2023-03-14T07:55:09;7.70;;;4.70;;
76848;SDS011;65814;51.134;16.980;2023-03-14T07:57:37;9.40;;;5.10;;
76848;SDS011;65814;51.134;16.980;2023-03-14T08:00:05;10.10;;;5.30;;
76848;SDS011;65814;51.134;16.980;2023-03-14T08:02:33;9.00;;;4.10;;
76848;SDS011;65814;51.134;16.980;2023-03-14T08:05:02;11.20;;;4.60;;
76848;SDS011;65814;51.134;16.980;2023-03-14T08:07:31;7.50;;;5.00;;
76848;SDS011;65814;51.134;16.980;2023-03-14T08:09:59;8.70;;;5.10;;
76848;SDS011;65814;51.134;16.980;2023-03-14T08:12:27;8.40;;;5.00;;
76848;SDS011;65814;51.134;16.980;2023-03-14T08:14:55;11.30;;;4.90;;
76848;SDS011;65814;51.134;16.980;2023-03-14T08:17:23;11.50;;;5.40;;
76848;SDS011;65814;51.134;16.980;2023-03-14T08:19:52;8.20;;;4.60;;
76848;SDS011;65814;51.134;16.980;2023-03-14T08:22:20;9.50;;;4.90;;
76848;SDS011;65814;51.134;16.980;2023-03-14T08:24:48;10.30;;;4.70;;
76848;SDS011;65814;51.134;16.980;2023-03-14T08:27:15;8.90;;;4.50;;
76848;SDS011;65814;51.134;16.980;2023-03-14T08:29:44;7.80;;;4.50;;
76848;SDS011;65814;51.134;16.980;2023-03-14T08:32:11;8.90;;;4.80;;
76848;SDS011;65814;51.134;16.980;2023-03-14T08:34:39;7.70;;;4.40;;
76848;SDS011;65814;51.134;16.980;2023-03-14T08:37:07;7.50;;;4.60;;
76848;SDS011;65814;51.134;16.980;2023-03-14T08:39:52;7.50;;;4.50;;
76848;SDS011;65814;51.134;16.980;2023-03-14T08:42:20;8.40;;;4.40;;
76848;SDS011;65814;51.134;16.980;2023-03-14T08:44:48;7.90;;;5.50;;
76848;SDS011;65814;51.134;16.980;2023-03-14T08:47:16;10.70;;;5.00;;
76848;SDS011;65814;51.134;16.980;2023-03-14T08:49:44;9.40;;;5.00;;
76848;SDS011;65814;51.134;16.980;2023-03-14T08:52:12;6.70;;;4.30;;
76848;SDS011;65814;51.134;16.980;2023-03-14T08:54:40;6.90;;;4.30;;
76848;SDS011;65814;51.134;16.980;2023-03-14T08:57:08;7.30;;;4.80;;
76848;SDS011;65814;51.134;16.980;2023-03-14T08:59:36;7.50;;;4.10;;
76848;SDS011;65814;51.134;16.980;2023-03-14T09:02:04;9.30;;;4.40;;
76848;SDS011;65814;51.134;16.980;2023-03-14T09:04:32;7.20;;;4.90;;
76848;SDS011;65814;51.134;16.980;2023-03-14T09:07:00;5.40;;;3.80;;
76848;SDS011;65814;51.134;16.980;2023-03-14T09:09:28;7.80;;;5.10;;
76848;SDS011;65814;51.134;16.980;2023-03-14T09:11:57;7.90;;;4.80;;
76848;SDS011;65814;51.134;16.980;2023-03-14T09:14:25;6.60;;;3.80;;
76848;SDS011;65814;51.134;16.980;2023-03-14T09:16:53;7.20;;;4.10;;
76848;SDS011;65814;51.134;16.980;2023-03-14T09:19:21;5.50;;;3.50;;
76848;SDS011;65814;51.134;16.980;2023-03-14T09:21:49;7.80;;;3.90;;
76848;SDS011;65814;51.134;16.980;2023-03-14T09:24:17;6.20;;;3.80;;
76848;SDS011;65814;51.134;16.980;2023-03-14T09:26:45;7.70;;;4.20;;
76848;SDS011;65814;51.134;16.980;2023-03-14T09:29:12;6.40;;;3.70;;
76848;SDS011;65814;51.134;16.980;2023-03-14T09:31:40;6.90;;;4.20;;
76848;SDS011;65814;51.134;16.980;2023-03-14T09:34:08;9.20;;;4.10;;
76848;SDS011;65814;51.134;16.980;2023-03-14T09:36:36;10.00;;;4.10;;
76848;SDS011;65814;51.134;16.980;2023-03-14T09:39:07;6.50;;;4.20;;
76848;SDS011;65814;51.134;16.980;2023-03-14T09:41:35;5.80;;;4.10;;
76848;SDS011;65814;51.134;16.980;2023-03-14T09:46:45;9.40;;;4.40;;
76848;SDS011;65814;51.134;16.980;2023-03-14T09:49:20;6.70;;;4.30;;
76848;SDS011;65814;51.134;16.980;2023-03-14T09:51:50;9.40;;;4.60;;
76848;SDS011;65814;51.134;16.980;2023-03-14T09:54:31;11.40;;;5.60;;
76848;SDS011;65814;51.134;16.980;2023-03-14T09:57:03;6.90;;;4.90;;
76848;SDS011;65814;51.134;16.980;2023-03-14T09:59:32;10.00;;;5.40;;
76848;SDS011;65814;51.134;16.980;2023-03-14T10:02:01;9.90;;;4.50;;
76848;SDS011;65814;51.134;16.980;2023-03-14T10:04:30;12.70;;;4.80;;
76848;SDS011;65814;51.134;16.980;2023-03-14T10:07:00;6.20;;;4.60;;
76848;SDS011;65814;51.134;16.980;2023-03-14T10:09:32;8.70;;;4.80;;
76848;SDS011;65814;51.134;16.980;2023-03-14T10:12:00;6.50;;;4.50;;
76848;SDS011;65814;51.134;16.980;2023-03-14T10:14:36;7.60;;;4.80;;
76848;SDS011;65814;51.134;16.980;2023-03-14T10:17:06;11.00;;;5.00;;
76848;SDS011;65814;51.134;16.980;2023-03-14T10:19:38;8.40;;;5.10;;
76848;SDS011;65814;51.134;16.980;2023-03-14T10:22:18;10.70;;;5.20;;
76848;SDS011;65814;51.134;16.980;2023-03-14T10:24:58;10.70;;;4.70;;
76848;SDS011;65814;51.134;16.980;2023-03-14T10:27:30;10.20;;;5.00;;
76848;SDS011;65814;51.134;16.980;2023-03-14T10:30:02;10.30;;;4.50;;
76848;SDS011;65814;51.134;16.980;2023-03-14T10:32:36;11.40;;;4.90;;
76848;SDS011;65814;51.134;16.980;2023-03-14T10:35:17;10.10;;;5.20;;
76848;SDS011;65814;51.134;16.980;2023-03-14T10:37:58;9.60;;;4.90;;
76848;SDS011;65814;51.134;16.980;2023-03-14T10:42:58;8.40;;;4.10;;
76848;SDS011;65814;51.134;16.980;2023-03-14T10:45:36;8.10;;;4.50;;
76848;SDS011;65814;51.134;16.980;2023-03-14T10:48:15;11.10;;;5.80;;
76848;SDS011;65814;51.134;16.980;2023-03-14T10:50:55;9.20;;;4.20;;
76848;SDS011;65814;51.134;16.980;2023-03-14T10:53:26;14.20;;;5.90;;
76848;SDS011;65814;51.134;16.980;2023-03-14T10:55:55;10.50;;;5.10;;
76848;SDS011;65814;51.134;16.980;2023-03-14T10:58:24;7.90;;;4.60;;
76848;SDS011;65814;51.134;16.980;2023-03-14T11:01:02;9.50;;;5.00;;
76848;SDS011;65814;51.134;16.980;2023-03-14T11:03:37;7.70;;;4.50;;
76848;SDS011;65814;51.134;16.980;2023-03-14T11:06:13;9.30;;;5.00;;
76848;SDS011;65814;51.134;16.980;2023-03-14T11:09:05;10.50;;;4.70;;
76848;SDS011;65814;51.134;16.980;2023-03-14T11:11:34;7.30;;;4.40;;
76848;SDS011;65814;51.134;16.980;2023-03-14T11:17:02;6.70;;;4.60;;
76848;SDS011;65814;51.134;16.980;2023-03-14T11:22:39;7.50;;;3.80;;
76848;SDS011;65814;51.134;16.980;2023-03-14T11:33:56;6.20;;;4.30;;
76848;SDS011;65814;51.134;16.980;2023-03-14T11:36:30;7.50;;;3.70;;
76848;SDS011;65814;51.134;16.980;2023-03-14T11:39:01;7.30;;;4.70;;
76848;SDS011;65814;51.134;16.980;2023-03-14T11:41:30;6.30;;;3.80;;
76848;SDS011;65814;51.134;16.980;2023-03-14T11:44:12;5.90;;;3.20;;
76848;SDS011;65814;51.134;16.980;2023-03-14T11:47:01;5.90;;;3.60;;
76848;SDS011;65814;51.134;16.980;2023-03-14T11:49:58;5.40;;;3.40;;
76848;SDS011;65814;51.134;16.980;2023-03-14T11:52:43;7.40;;;4.00;;
76848;SDS011;65814;51.134;16.980;2023-03-14T11:55:33;8.90;;;3.30;;
76848;SDS011;65814;51.134;16.980;2023-03-14T11:58:05;6.60;;;3.50;;
76848;SDS011;65814;51.134;16.980;2023-03-14T12:00:39;6.30;;;3.90;;
76848;SDS011;65814;51.134;16.980;2023-03-14T12:11:08;8.00;;;3.70;;
76848;SDS011;65814;51.134;16.980;2023-03-14T12:13:40;6.30;;;3.30;;
76848;SDS011;65814;51.134;16.980;2023-03-14T12:18:52;7.40;;;4.60;;
76848;SDS011;65814;51.134;16.980;2023-03-14T12:21:20;5.30;;;3.30;;
76848;SDS011;65814;51.134;16.980;2023-03-14T12:23:49;5.40;;;3.50;;
76848;SDS011;65814;51.134;16.980;2023-03-14T12:26:21;4.40;;;3.10;;
76848;SDS011;65814;51.134;16.980;2023-03-14T12:34:02;5.40;;;3.50;;
76848;SDS011;65814;51.134;16.980;2023-03-14T12:42:09;6.00;;;3.50;;
76848;SDS011;65814;51.134;16.980;2023-03-14T12:44:40;5.30;;;3.70;;
76848;SDS011;65814;51.134;16.980;2023-03-14T12:49:48;7.80;;;4.80;;
76848;SDS011;65814;51.134;16.980;2023-03-14T12:55:36;7.40;;;4.80;;
76848;SDS011;65814;51.134;16.980;2023-03-14T12:58:31;8.50;;;4.70;;
76848;SDS011;65814;51.134;16.980;2023-03-14T13:01:00;7.80;;;5.00;;
76848;SDS011;65814;51.134;16.980;2023-03-14T13:03:42;10.00;;;5.60;;
76848;SDS011;65814;51.134;16.980;2023-03-14T13:06:52;14.20;;;7.50;;
76848;SDS011;65814;51.134;16.980;2023-03-14T13:12:01;9.10;;;6.00;;
76848;SDS011;65814;51.134;16.980;2023-03-14T13:14:31;9.80;;;5.00;;
76848;SDS011;65814;51.134;16.980;2023-03-14T13:16:59;8.10;;;6.00;;
76848;SDS011;65814;51.134;16.980;2023-03-14T13:19:50;7.60;;;4.80;;
76848;SDS011;65814;51.134;16.980;2023-03-14T13:22:27;9.10;;;5.50;;
76848;SDS011;65814;51.134;16.980;2023-03-14T13:25:01;7.10;;;5.00;;
76848;SDS011;65814;51.134;16.980;2023-03-14T13:27:31;8.30;;;5.20;;
76848;SDS011;65814;51.134;16.980;2023-03-14T13:33:02;10.40;;;5.50;;
76848;SDS011;65814;51.134;16.980;2023-03-14T13:35:45;8.00;;;5.20;;
76848;SDS011;65814;51.134;16.980;2023-03-14T13:38:17;7.50;;;5.90;;
76848;SDS011;65814;51.134;16.980;2023-03-14T13:40:51;7.20;;;5.00;;
76848;SDS011;65814;51.134;16.980;2023-03-14T13:43:21;7.10;;;5.10;;
76848;SDS011;65814;51.134;16.980;2023-03-14T13:45:56;8.30;;;5.40;;
76848;SDS011;65814;51.134;16.980;2023-03-14T13:48:32;10.10;;;4.90;;
76848;SDS011;65814;51.134;16.980;2023-03-14T13:51:04;13.80;;;5.70;;
76848;SDS011;65814;51.134;16.980;2023-03-14T13:53:42;8.60;;;4.70;;
76848;SDS011;65814;51.134;16.980;2023-03-14T13:56:11;9.20;;;4.70;;
76848;SDS011;65814;51.134;16.980;2023-03-14T13:58:40;7.50;;;4.90;;
76848;SDS011;65814;51.134;16.980;2023-03-14T14:01:16;6.80;;;4.70;;
76848;SDS011;65814;51.134;16.980;2023-03-14T14:03:47;9.20;;;4.30;;
76848;SDS011;65814;51.134;16.980;2023-03-14T14:08:49;7.80;;;3.80;;
76848;SDS011;65814;51.134;16.980;2023-03-14T14:11:42;7.30;;;3.90;;
76848;SDS011;65814;51.134;16.980;2023-03-14T14:14:43;7.80;;;4.00;;
76848;SDS011;65814;51.134;16.980;2023-03-14T14:17:19;7.90;;;4.10;;
76848;SDS011;65814;51.134;16.980;2023-03-14T14:19:49;9.40;;;5.00;;
76848;SDS011;65814;51.134;16.980;2023-03-14T14:22:18;8.70;;;4.90;;
76848;SDS011;65814;51.134;16.980;2023-03-14T14:24:47;6.80;;;4.90;;
76848;SDS011;65814;51.134;16.980;2023-03-14T14:27:17;7.20;;;4.70;;
76848;SDS011;65814;51.134;16.980;2023-03-14T14:32:48;8.60;;;5.00;;
76848;SDS011;65814;51.134;16.980;2023-03-14T14:35:31;8.80;;;5.20;;
76848;SDS011;65814;51.134;16.980;2023-03-14T14:38:00;8.40;;;4.90;;
76848;SDS011;65814;51.134;16.980;2023-03-14T14:40:29;8.40;;;4.70;;
76848;SDS011;65814;51.134;16.980;2023-03-14T14:43:04;7.50;;;4.80;;
76848;SDS011;65814;51.134;16.980;2023-03-14T14:45:33;7.50;;;5.00;;
76848;SDS011;65814;51.134;16.980;2023-03-14T14:50:31;8.50;;;5.10;;
76848;SDS011;65814;51.134;16.980;2023-03-14T14:53:20;8.30;;;4.80;;
76848;SDS011;65814;51.134;16.980;2023-03-14T14:55:52;8.30;;;5.30;;
76848;SDS011;65814;51.134;16.980;2023-03-14T14:58:29;8.00;;;4.90;;
76848;SDS011;65814;51.134;16.980;2023-03-14T15:01:43;10.30;;;6.10;;
76848;SDS011;65814;51.134;16.980;2023-03-14T15:03:54;9.90;;;5.30;;
76848;SDS011;65814;51.134;16.980;2023-03-14T15:06:22;9.60;;;5.70;;
76848;SDS011;65814;51.134;16.980;2023-03-14T15:08:54;10.60;;;5.20;;
76848;SDS011;65814;51.134;16.980;2023-03-14T15:11:23;8.30;;;4.70;;
76848;SDS011;65814;51.134;16.980;2023-03-14T15:13:52;8.70;;;5.10;;
76848;SDS011;65814;51.134;16.980;2023-03-14T15:16:21;9.30;;;5.20;;
76848;SDS011;65814;51.134;16.980;2023-03-14T15:18:57;10.90;;;5.10;;
76848;SDS011;65814;51.134;16.980;2023-03-14T15:21:27;8.30;;;5.00;;
76848;SDS011;65814;51.134;16.980;2023-03-14T15:23:56;11.10;;;5.50;;
76848;SDS011;65814;51.134;16.980;2023-03-14T15:26:25;7.10;;;4.00;;
76848;SDS011;65814;51.134;16.980;2023-03-14T15:28:54;6.90;;;4.10;;
76848;SDS011;65814;51.134;16.980;2023-03-14T15:31:22;8.20;;;4.60;;
76848;SDS011;65814;51.134;16.980;2023-03-14T15:33:50;8.60;;;4.60;;
76848;SDS011;65814;51.134;16.980;2023-03-14T15:36:20;6.90;;;4.20;;
76848;SDS011;65814;51.134;16.980;2023-03-14T15:38:51;6.10;;;3.60;;
76848;SDS011;65814;51.134;16.980;2023-03-14T15:41:21;5.00;;;3.70;;
76848;SDS011;65814;51.134;16.980;2023-03-14T15:43:50;6.40;;;3.40;;
76848;SDS011;65814;51.134;16.980;2023-03-14T15:46:18;4.40;;;2.90;;
76848;SDS011;65814;51.134;16.980;2023-03-14T15:48:48;7.50;;;3.50;;
76848;SDS011;65814;51.134;16.980;2023-03-14T15:51:17;5.70;;;3.60;;
76848;SDS011;65814;51.134;16.980;2023-03-14T15:53:45;5.80;;;3.80;;
76848;SDS011;65814;51.134;16.980;2023-03-14T15:56:15;7.90;;;4.00;;
76848;SDS011;65814;51.134;16.980;2023-03-14T15:58:45;5.00;;;3.30;;
76848;SDS011;65814;51.134;16.980;2023-03-14T16:01:16;5.50;;;3.60;;
76848;SDS011;65814;51.134;16.980;2023-03-14T16:03:44;5.90;;;3.90;;
76848;SDS011;65814;51.134;16.980;2023-03-14T16:06:13;5.60;;;3.40;;
76848;SDS011;65814;51.134;16.980;2023-03-14T16:08:41;5.10;;;3.30;;